Time;durP1;ratioP1;P1;durP2;ratioP2;P2;SDS_P1;SDS_P2;PMS_P1;PMS_P2;Temp;Humidity;BMP_temperature;BMP_pressure;BME280_temperature;BME280_humidity;BME280_pressure;Samples;Min_cycle;Max_cycle;Signal;HPM_P1;HPM_P2
2022/02/01 00:03:13;;;;;;;12.77;8.13;;;;;;;13.43;37.61;101756.56;4933882;29;20998;-79
2022/02/01 00:05:57;;;;;;;13.50;7.83;;;;;;;13.52;37.56;101771.78;4931771;29;20202;-83
2022/02/01 00:14:21;;;;;;;13.17;8.00;;;;;;;13.70;36.74;101749.97;4940953;29;20315;-76
2022/02/01 00:36:05;;;;;;;7.97;4.80;;;;;;;13.60;35.93;101766.75;4941078;28;20466;-78
2022/02/01 00:38:41;;;;;;;11.60;6.07;;;;;;;13.59;35.90;101726.63;4938609;29;20120;-77
2022/02/01 00:41:11;;;;;;;11.47;6.07;;;;;;;13.73;35.88;101741.84;4964798;28;20062;-78
2022/02/01 00:43:38;;;;;;;11.20;5.93;;;;;;;13.75;36.08;101741.59;4934485;29;20142;-77
2022/02/01 00:46:05;;;;;;;14.43;7.93;;;;;;;13.72;35.98;101726.13;4937206;29;20044;-72
2022/02/01 00:48:33;;;;;;;12.67;8.07;;;;;;;13.61;35.96;101706.72;4965756;28;20074;-79
2022/02/01 00:51:00;;;;;;;12.37;7.50;;;;;;;13.51;36.33;101716.78;4934485;29;20134;-79
2022/02/01 00:53:28;;;;;;;15.37;7.70;;;;;;;13.78;36.13;101727.03;4934026;29;20131;-80
2022/02/01 00:55:56;;;;;;;14.40;8.67;;;;;;;13.51;36.38;101708.34;4927281;29;20518;-81
2022/02/01 00:58:24;;;;;;;4.43;3.07;;;;;;;13.44;36.69;101740.59;4931674;29;20150;-77
2022/02/01 01:00:51;;;;;;;14.97;7.30;;;;;;;13.42;36.49;101746.44;4937902;29;20086;-76
2022/02/01 01:03:18;;;;;;;11.43;6.77;;;;;;;13.41;36.39;101757.97;4931610;29;20542;-74
2022/02/01 01:05:46;;;;;;;12.53;7.40;;;;;;;13.42;36.58;101754.88;4933537;29;20062;-73
2022/02/01 01:08:13;;;;;;;10.20;6.80;;;;;;;13.54;36.26;101762.22;4936258;29;20106;-73
2022/02/01 01:10:41;;;;;;;9.10;5.30;;;;;;;13.56;36.17;101765.63;4934632;29;20154;-74
2022/02/01 01:16:04;;;;;;;10.13;4.47;;;;;;;13.43;36.16;101762.16;4933321;29;20138;-75
2022/02/01 01:43:59;;;;;;;10.13;5.47;;;;;;;13.63;35.72;101777.44;4939069;29;20071;-75
2022/02/01 01:46:26;;;;;;;15.13;6.80;;;;;;;13.67;35.63;101776.63;4933983;28;20052;-77
2022/02/01 01:54:24;;;;;;;7.53;4.70;;;;;;;13.50;35.88;101768.41;4953634;29;20031;-83
2022/02/01 01:56:55;;;;;;;11.07;5.53;;;;;;;13.44;35.92;101769.50;4960438;29;20051;-79
2022/02/01 01:59:33;;;;;;;7.32;5.30;;;;;;;13.37;36.14;101780.09;4959451;29;20103;-75
2022/02/01 02:02:00;;;;;;;7.93;5.00;;;;;;;13.38;36.08;101776.16;4960754;29;20083;-73
2022/02/01 02:04:27;;;;;;;9.23;5.40;;;;;;;13.42;35.82;101766.09;4960862;28;20743;-80
2022/02/01 02:06:54;;;;;;;6.60;4.63;;;;;;;13.28;35.96;101745.25;4961066;28;20060;-86
2022/02/01 02:09:21;;;;;;;9.53;5.03;;;;;;;13.47;35.90;101768.94;4957740;29;20063;-82
2022/02/01 02:17:04;;;;;;;7.55;4.22;;;;;;;13.36;36.07;101761.56;4934817;29;20051;-86
2022/02/01 02:19:32;;;;;;;7.93;4.37;;;;;;;13.42;35.89;101766.09;4935349;29;20134;-81
2022/02/01 02:22:02;;;;;;;9.77;4.60;;;;;;;13.28;35.92;101751.69;4931251;29;20056;-81
2022/02/01 02:24:31;;;;;;;8.68;4.28;;;;;;;13.38;35.88;101772.53;4966063;28;20392;-79
2022/02/01 02:26:59;;;;;;;9.38;5.50;;;;;;;13.32;35.96;101760.41;4931475;29;20194;-84
2022/02/01 02:29:27;;;;;;;6.77;4.43;;;;;;;13.39;35.92;101761.03;4931762;29;20075;-81
2022/02/01 02:31:55;;;;;;;8.90;4.37;;;;;;;13.24;36.12;101753.34;4933662;29;20139;-80
2022/02/01 02:34:22;;;;;;;6.27;3.57;;;;;;;13.21;36.09;101758.63;4934775;29;20501;-78
2022/02/01 02:37:04;;;;;;;10.27;5.33;;;;;;;13.19;35.99;101767.28;4934507;29;20048;-81
2022/02/01 02:39:46;;;;;;;7.67;4.17;;;;;;;13.13;35.81;101765.59;4932718;29;20087;-80
2022/02/01 02:42:23;;;;;;;6.23;3.50;;;;;;;12.86;36.01;101740.41;4933423;29;20123;-78
2022/02/01 02:45:09;;;;;;;3.67;2.60;;;;;;;13.17;35.91;101783.56;4933588;29;20126;-83
2022/02/01 02:47:36;;;;;;;7.33;3.90;;;;;;;13.03;35.78;101769.13;4929268;29;20444;-79
2022/02/01 02:50:04;;;;;;;5.83;3.50;;;;;;;13.15;35.74;101793.34;4933980;29;20063;-84
2022/02/01 02:52:31;;;;;;;5.93;3.77;;;;;;;13.17;35.62;101800.38;4935844;29;20143;-80
2022/02/01 02:54:58;;;;;;;9.13;4.67;;;;;;;13.21;35.61;101797.88;4944231;28;20482;-81
2022/02/01 02:57:26;;;;;;;7.27;3.53;;;;;;;13.24;35.69;101798.22;4964910;28;20157;-80
2022/02/01 02:59:53;;;;;;;5.50;2.77;;;;;;;13.24;35.54;101800.19;4933879;29;20066;-82
2022/02/01 03:02:21;;;;;;;3.27;1.87;;;;;;;13.15;35.73;101784.94;4934230;29;20519;-79
2022/02/01 03:04:48;;;;;;;3.40;1.50;;;;;;;13.07;35.59;101788.25;4934838;29;20079;-80
2022/02/01 03:07:15;;;;;;;4.93;3.13;;;;;;;13.02;35.90;101789.91;4927382;29;20135;-80
2022/02/01 03:09:48;;;;;;;4.27;3.03;;;;;;;12.82;36.03;101795.31;4930768;29;20056;-81
2022/02/01 03:12:21;;;;;;;3.67;1.57;;;;;;;12.57;36.43;101765.88;4932635;29;20102;-82
2022/02/01 03:15:09;;;;;;;1.37;1.10;;;;;;;12.71;36.58;101787.88;4931582;29;20171;-80
2022/02/01 03:20:17;;;;;;;2.43;1.70;;;;;;;12.05;36.64;101685.22;4933230;29;20475;-80
2022/02/01 03:22:45;;;;;;;3.27;1.90;;;;;;;12.75;36.48;101778.69;4933606;29;20043;-79
2022/02/01 03:25:14;;;;;;;2.77;1.53;;;;;;;12.75;36.54;101770.28;4936283;29;20139;-81
2022/02/01 03:27:43;;;;;;;5.97;1.63;;;;;;;12.76;36.32;101763.56;4933165;29;20142;-81
2022/02/01 03:30:10;;;;;;;5.50;2.23;;;;;;;12.83;36.11;101762.50;4935946;29;20054;-81
2022/02/01 03:32:37;;;;;;;2.77;1.50;;;;;;;12.84;36.09;101764.19;4934031;29;20135;-81
2022/02/01 03:35:04;;;;;;;4.43;2.40;;;;;;;13.12;35.74;101777.06;4930285;29;20052;-81
2022/02/01 03:37:31;;;;;;;7.50;3.03;;;;;;;13.19;35.68;101788.88;4937196;29;20146;-81
2022/02/01 03:39:57;;;;;;;4.27;2.40;;;;;;;13.31;35.33;101786.78;4935412;29;20138;-81
2022/02/01 03:42:26;;;;;;;4.23;2.50;;;;;;;13.36;35.27;101806.44;4940407;29;20111;-82
2022/02/01 03:44:53;;;;;;;4.10;1.60;;;;;;;13.04;35.42;101767.19;4959489;29;20055;-79
2022/02/01 03:47:20;;;;;;;3.20;2.13;;;;;;;13.19;35.46;101806.56;4939236;29;20047;-78
2022/02/01 03:49:47;;;;;;;9.43;2.13;;;;;;;13.13;35.53;101790.81;4954311;29;20051;-79
2022/02/01 03:52:14;;;;;;;5.17;2.47;;;;;;;13.13;35.59;101795.56;4935064;29;20910;-79
2022/02/01 03:54:41;;;;;;;5.03;2.47;;;;;;;13.09;35.50;101805.63;4931264;29;20172;-79
2022/02/01 03:57:11;;;;;;;3.20;2.00;;;;;;;12.95;35.74;101803.25;4932302;29;20048;-78
2022/02/01 03:59:41;;;;;;;;;;;;;;;12.98;35.68;101791.50;4934304;29;20087;-78
2022/02/01 04:02:17;;;;;;;5.63;2.50;;;;;;;12.95;35.61;101777.19;4934057;29;20007;-78
2022/02/01 04:04:48;;;;;;;2.37;1.40;;;;;;;12.93;35.79;101808.31;4934069;29;20110;-77
2022/02/01 04:07:15;;;;;;;4.83;2.73;;;;;;;12.79;36.18;101804.25;4931809;29;20147;-71
2022/02/01 04:09:42;;;;;;;2.43;1.13;;;;;;;12.61;36.13;101773.78;4934456;29;20164;-73
2022/02/01 04:12:09;;;;;;;8.20;3.50;;;;;;;12.68;36.29;101808.88;4930386;29;20529;-73
2022/02/01 04:14:36;;;;;;;4.23;2.23;;;;;;;12.67;36.38;101806.34;4933555;29;20150;-70
2022/02/01 04:17:05;;;;;;;5.57;2.40;;;;;;;12.61;36.39;101805.44;4930249;29;20139;-69
2022/02/01 04:19:33;;;;;;;3.60;1.40;;;;;;;12.49;36.26;101786.00;4933922;29;20051;-69
2022/02/01 04:22:02;;;;;;;5.97;3.10;;;;;;;12.64;36.30;101810.53;4929267;29;20114;-71
2022/02/01 04:24:35;;;;;;;4.63;1.53;;;;;;;12.48;36.58;101812.31;4929229;29;20407;-73
2022/02/01 04:27:04;;;;;;;6.63;2.27;;;;;;;12.41;36.80;101797.69;4929935;29;20558;-78
2022/02/01 04:29:31;;;;;;;5.53;2.00;;;;;;;12.44;36.71;101805.53;4932914;29;20086;-77
2022/02/01 04:31:58;;;;;;;6.13;2.37;;;;;;;11.92;37.00;101741.63;4934854;29;20071;-78
2022/02/01 04:34:25;;;;;;;5.37;2.93;;;;;;;12.22;37.19;101808.38;4934237;29;20131;-77
2022/02/01 04:36:52;;;;;;;2.93;1.13;;;;;;;12.23;37.21;101832.44;4934198;29;20140;-80
2022/02/01 04:39:20;;;;;;;6.23;2.67;;;;;;;12.01;37.64;101815.66;4929648;29;20127;-79
2022/02/01 04:41:48;;;;;;;4.57;1.60;;;;;;;11.84;37.64;101781.28;4933673;29;20079;-78
2022/02/01 04:44:15;;;;;;;3.20;2.17;;;;;;;11.95;37.69;101811.09;4934125;29;20496;-78
2022/02/01 04:46:42;;;;;;;1.33;1.03;;;;;;;11.95;37.84;101825.09;4929551;29;20061;-77
2022/02/01 04:49:11;;;;;;;1.50;1.40;;;;;;;11.78;37.84;101782.28;4930900;29;20056;-76
2022/02/01 04:51:38;;;;;;;1.90;0.83;;;;;;;12.09;37.66;101829.19;4929788;29;20123;-76
2022/02/01 04:54:06;;;;;;;4.80;1.93;;;;;;;11.82;37.43;101789.88;4924192;29;20115;-82
2022/02/01 04:56:33;;;;;;;4.40;1.83;;;;;;;12.03;37.62;101826.59;4936119;29;20478;-79
2022/02/01 04:58:59;;;;;;;0.90;0.90;;;;;;;12.08;37.22;101819.09;4936887;29;20139;-80
2022/02/01 05:01:37;;;;;;;1.90;1.30;;;;;;;11.75;37.54;101786.44;4935042;29;20138;-80
2022/02/01 05:04:06;;;;;;;0.43;0.43;;;;;;;11.93;37.89;101821.72;4937198;29;20060;-80
2022/02/01 05:06:33;;;;;;;1.93;1.17;;;;;;;12.05;37.18;101822.44;4936645;29;20066;-80
2022/02/01 05:08:59;;;;;;;5.00;1.47;;;;;;;11.70;37.58;101788.31;4936753;29;20070;-79
2022/02/01 05:11:27;;;;;;;4.93;1.20;;;;;;;11.37;37.83;101750.91;4965812;28;20443;-79
2022/02/01 05:22:02;;;;;;;3.30;1.48;;;;;;;11.69;37.88;101798.69;4935864;29;20099;-75
2022/02/01 05:24:29;;;;;;;2.57;1.10;;;;;;;11.84;37.76;101829.69;4935124;29;20086;-75
2022/02/01 05:26:59;;;;;;;4.80;1.63;;;;;;;11.89;37.87;101826.13;4935394;29;20052;-75
2022/02/01 05:29:27;;;;;;;2.07;1.20;;;;;;;11.98;37.72;101812.53;4934155;29;20499;-74
2022/02/01 05:31:56;;;;;;;3.43;1.40;;;;;;;11.82;37.72;101815.06;4949479;28;20463;-75
2022/02/01 05:34:24;;;;;;;12.15;2.25;;;;;;;11.57;37.73;101756.81;4936528;29;20548;-79
2022/02/01 05:36:51;;;;;;;2.47;1.60;;;;;;;11.55;37.96;101778.56;4934849;29;20090;-70
2022/02/01 05:39:23;;;;;;;1.83;1.17;;;;;;;11.64;38.16;101795.78;4936465;29;20463;-69
2022/02/01 05:41:54;;;;;;;4.50;1.30;;;;;;;11.59;38.33;101799.38;4932067;29;20051;-69
2022/02/01 05:44:21;;;;;;;0.80;0.80;;;;;;;11.70;38.08;101802.31;4933283;29;20115;-79
2022/02/01 05:46:48;;;;;;;1.43;1.00;;;;;;;11.62;38.29;101803.56;4935996;29;20459;-78
2022/02/01 05:49:18;;;;;;;2.63;1.80;;;;;;;11.71;38.29;101778.81;4927107;29;20114;-80
2022/02/01 05:51:49;;;;;;;3.43;1.73;;;;;;;11.75;38.05;101797.63;4936261;29;20056;-82
2022/02/01 05:54:17;;;;;;;3.70;1.90;;;;;;;11.97;37.57;101800.50;4935370;29;20051;-77
2022/02/01 05:56:44;;;;;;;2.30;1.73;;;;;;;11.93;37.46;101765.72;4936777;29;20087;-78
2022/02/01 05:59:11;;;;;;;2.47;1.63;;;;;;;12.23;37.28;101803.59;4936493;29;20142;-79
2022/02/01 06:01:37;;;;;;;2.27;1.10;;;;;;;12.12;37.54;101807.38;4935929;29;20160;-73
2022/02/01 06:04:04;;;;;;;5.10;2.03;;;;;;;12.19;37.39;101797.69;4934818;29;20047;-82
2022/02/01 06:06:31;;;;;;;3.40;1.70;;;;;;;12.26;37.17;101791.88;4935006;29;20483;-80
2022/02/01 06:08:58;;;;;;;3.37;1.93;;;;;;;12.41;36.98;101794.88;4919651;29;20530;-83
2022/02/01 06:11:25;;;;;;;2.93;1.80;;;;;;;12.44;36.80;101787.88;4934371;29;20051;-79
2022/02/01 06:13:52;;;;;;;3.67;1.67;;;;;;;12.25;37.00;101770.59;4936979;29;20485;-78
2022/02/01 06:16:18;;;;;;;3.23;1.73;;;;;;;12.37;36.89;101776.88;4932030;29;20098;-76
2022/02/01 06:18:45;;;;;;;2.63;1.50;;;;;;;12.39;36.94;101777.47;4931539;29;20052;-76
2022/02/01 06:21:12;;;;;;;4.27;1.67;;;;;;;12.43;36.75;101770.22;4932174;29;20142;-83
2022/02/01 06:23:40;;;;;;;3.00;1.60;;;;;;;12.41;36.67;101766.00;4933249;29;20155;-85
2022/02/01 06:26:10;;;;;;;4.10;1.77;;;;;;;12.47;36.57;101774.19;4936675;29;20094;-79
2022/02/01 06:28:37;;;;;;;2.93;1.53;;;;;;;12.45;36.71;101772.78;4933514;29;20131;-69
2022/02/01 06:31:04;;;;;;;4.23;1.70;;;;;;;12.46;36.64;101778.09;4929221;29;20435;-67
2022/02/01 06:33:31;;;;;;;5.47;1.50;;;;;;;12.31;36.76;101761.16;4927490;29;20559;-64
2022/02/01 06:35:59;;;;;;;2.90;1.40;;;;;;;12.47;36.89;101782.59;4928888;29;20143;-67
2022/02/01 06:38:26;;;;;;;3.93;1.67;;;;;;;12.48;36.91;101784.31;4926173;29;20143;-66
2022/02/01 06:40:52;;;;;;;3.07;1.87;;;;;;;12.33;36.58;101756.94;4934171;29;20154;-67
2022/02/01 06:43:20;;;;;;;6.30;1.30;;;;;;;12.34;36.80;101777.41;4931120;29;20135;-67
2022/02/01 06:45:47;;;;;;;2.43;1.17;;;;;;;12.43;36.78;101808.59;4929884;29;20086;-66
2022/02/01 06:48:14;;;;;;;4.40;1.90;;;;;;;12.39;36.83;101808.28;4931498;29;20437;-65
2022/02/01 06:50:44;;;;;;;;;;;;;;;12.16;37.45;101825.34;4928657;29;20052;-66
2022/02/01 06:53:11;;;;;;;2.93;1.67;;;;;;;12.03;37.44;101816.25;4930189;29;20033;-65
2022/02/01 06:58:12;;;;;;;1.83;1.30;;;;;;;12.14;37.12;101841.59;4930030;29;20518;-69
2022/02/01 07:00:40;;;;;;;2.83;1.57;;;;;;;12.16;37.30;101845.81;4923337;29;20063;-65
2022/02/01 07:03:08;;;;;;;2.20;1.33;;;;;;;12.24;36.88;101822.09;4928671;29;20971;-67
2022/02/01 07:05:35;;;;;;;1.17;0.93;;;;;;;12.45;36.83;101852.06;4933830;29;20043;-66
2022/02/01 07:08:02;;;;;;;3.43;1.40;;;;;;;12.35;36.80;101835.13;4931194;29;20134;-67
2022/02/01 07:10:30;;;;;;;2.47;1.50;;;;;;;12.33;36.86;101842.94;4961279;28;20578;-67
2022/02/01 07:12:57;;;;;;;2.70;1.37;;;;;;;12.13;36.65;101814.69;4932868;29;20063;-68
2022/02/01 07:15:24;;;;;;;3.63;1.17;;;;;;;12.25;36.93;101863.00;4933276;29;20094;-67
2022/02/01 07:17:56;;;;;;;2.80;1.10;;;;;;;12.08;37.48;101860.25;4930402;29;20066;-68
2022/02/01 07:20:24;;;;;;;1.63;1.10;;;;;;;11.96;37.68;101857.56;4957830;28;20048;-67
2022/02/01 07:22:51;;;;;;;2.00;1.00;;;;;;;11.85;37.76;101867.78;4925781;29;20051;-67
2022/02/01 07:27:53;;;;;;;0.70;0.70;;;;;;;11.83;37.76;101849.53;4924772;29;20176;-68
2022/02/01 07:30:24;;;;;;;1.90;0.77;;;;;;;11.90;37.85;101861.41;4925773;29;20685;-68
2022/02/01 07:32:53;;;;;;;3.57;1.43;;;;;;;11.97;37.47;101839.69;4929913;29;20055;-67
2022/02/01 07:35:22;;;;;;;4.10;1.37;;;;;;;12.25;37.01;101847.06;4959715;28;20131;-68
2022/02/01 07:37:49;;;;;;;3.07;1.60;;;;;;;12.05;37.10;101811.22;4933719;29;20499;-68
2022/02/01 07:40:16;;;;;;;3.37;1.43;;;;;;;12.29;37.06;101830.56;4931547;29;20138;-67
2022/02/01 07:42:44;;;;;;;2.60;1.63;;;;;;;12.22;36.92;101825.16;4933646;29;20091;-67
2022/02/01 07:45:13;;;;;;;2.47;1.40;;;;;;;11.97;37.20;101794.88;4928872;29;20147;-67
2022/02/01 07:47:39;;;;;;;4.03;1.43;;;;;;;11.99;36.98;101780.63;4922124;29;20142;-67
2022/02/01 07:50:08;;;;;;;1.07;0.83;;;;;;;12.18;37.07;101820.34;4922259;29;20560;-66
2022/02/01 07:52:35;;;;;;;2.17;1.30;;;;;;;12.21;36.91;101814.25;4926471;29;20056;-67
2022/02/01 07:55:04;;;;;;;2.57;1.30;;;;;;;12.28;37.21;101824.13;4930080;29;20075;-66
2022/02/01 07:57:31;;;;;;;1.40;1.07;;;;;;;12.32;37.12;101841.25;4932286;29;20139;-67
2022/02/01 07:59:58;;;;;;;1.23;0.90;;;;;;;12.31;36.86;101820.81;4929980;29;20083;-68
2022/02/01 08:02:25;;;;;;;1.67;1.07;;;;;;;12.25;37.08;101846.22;4956712;28;20058;-67
2022/02/01 08:05:12;;;;;;;2.63;1.63;;;;;;;12.29;37.32;101841.78;4927881;29;20055;-68
2022/02/01 08:07:39;;;;;;;1.50;1.10;;;;;;;12.63;36.91;101856.47;4931774;29;20143;-67
2022/02/01 08:10:10;;;;;;;5.83;1.47;;;;;;;12.98;36.49;101855.16;4934583;29;20423;-68
2022/02/01 08:20:19;;;;;;;2.60;1.30;;;;;;;14.35;34.44;101857.31;4930941;29;20150;-68
2022/02/01 08:25:14;;;;;;;6.90;2.43;;;;;;;15.18;33.68;101848.88;4929935;29;20091;-66
2022/02/01 08:27:41;;;;;;;2.73;1.53;;;;;;;15.54;33.20;101868.56;4934644;29;20078;-67
2022/02/01 08:30:11;;;;;;;2.27;1.30;;;;;;;15.97;32.84;101871.94;4935480;29;20054;-67
2022/02/01 08:32:38;;;;;;;3.30;2.08;;;;;;;16.13;32.36;101859.47;4933292;29;20087;-68
2022/02/01 08:35:07;;;;;;;3.30;1.63;;;;;;;16.46;31.86;101868.41;4933406;29;20047;-67
2022/02/01 08:37:33;;;;;;;6.63;2.20;;;;;;;16.62;31.82;101861.56;4937339;29;20056;-67
2022/02/01 08:40:00;;;;;;;3.80;1.27;;;;;;;16.71;31.29;101859.81;4934898;29;20511;-68
2022/02/01 08:42:27;;;;;;;2.43;1.73;;;;;;;17.03;31.05;101867.84;4926861;29;20053;-66
2022/02/01 08:44:54;;;;;;;4.20;1.70;;;;;;;17.12;31.20;101868.06;4928859;29;20178;-67
2022/02/01 08:47:21;;;;;;;4.13;1.77;;;;;;;17.42;30.55;101874.63;4926105;29;20070;-67
2022/02/01 08:49:48;;;;;;;5.70;2.73;;;;;;;17.74;30.64;101886.22;4934435;29;20098;-67
2022/02/01 08:52:26;;;;;;;3.30;2.05;;;;;;;17.95;30.33;101871.91;4932940;29;20126;-67
2022/02/01 08:54:54;;;;;;;3.00;1.83;;;;;;;18.42;30.33;101881.53;4932988;29;20087;-67
2022/02/01 08:57:21;;;;;;;5.03;1.73;;;;;;;18.70;30.03;101889.13;4934171;29;20529;-66
2022/02/01 09:00:07;;;;;;;5.80;1.95;;;;;;;19.07;29.26;101879.00;4935257;29;20078;-67
2022/02/01 09:02:34;;;;;;;5.68;1.90;;;;;;;19.55;29.07;101901.47;4932768;29;20079;-67
2022/02/01 09:05:01;;;;;;;3.00;1.70;;;;;;;19.70;28.27;101908.09;4936028;29;20048;-72
2022/02/01 09:07:27;;;;;;;4.32;2.30;;;;;;;19.84;28.38;101906.13;4928929;29;20075;-66
2022/02/01 09:09:55;;;;;;;2.50;1.55;;;;;;;20.33;27.97;101924.50;4934010;29;20055;-68
2022/02/01 09:12:22;;;;;;;3.83;1.63;;;;;;;20.35;27.43;101931.53;4933303;29;20166;-66
2022/02/01 09:14:51;;;;;;;3.53;1.75;;;;;;;20.41;27.35;101932.28;4934205;29;20083;-67
2022/02/01 09:17:21;;;;;;;2.53;1.48;;;;;;;20.64;26.95;101927.59;4935968;29;20143;-67
2022/02/01 09:19:48;;;;;;;;;;;;;;;20.26;26.61;101924.91;4935339;29;20095;-66
2022/02/01 09:22:15;;;;;;;4.32;2.00;;;;;;;20.04;26.46;101945.47;4931061;29;20352;-67
2022/02/01 09:24:43;;;;;;;2.42;1.80;;;;;;;20.02;26.53;101944.91;4929870;29;20483;-67
2022/02/01 09:27:11;;;;;;;0.93;0.93;;;;;;;19.60;26.52;101951.56;4933056;29;20083;-68
2022/02/01 09:29:38;;;;;;;3.75;1.55;;;;;;;19.35;26.94;101944.28;4933374;29;20055;-67
2022/02/01 09:32:06;;;;;;;1.77;1.33;;;;;;;19.48;27.01;101942.69;4928613;29;20064;-67
2022/02/01 09:34:53;;;;;;;1.48;1.10;;;;;;;19.47;27.13;101927.69;4933857;29;20039;-67
2022/02/01 09:37:23;;;;;;;1.53;1.10;;;;;;;19.94;26.88;101950.47;4933473;29;20059;-67
2022/02/01 09:39:50;;;;;;;2.10;1.50;;;;;;;19.93;27.02;101949.63;4929388;29;20377;-68
2022/02/01 09:42:17;;;;;;;3.08;1.63;;;;;;;20.35;26.61;101942.06;4932064;29;20060;-68
2022/02/01 09:44:44;;;;;;;2.80;1.85;;;;;;;20.57;26.21;101958.38;4930268;29;20079;-68
2022/02/01 09:47:11;;;;;;;3.47;2.00;;;;;;;20.70;25.98;101951.88;4928658;29;20059;-67
2022/02/01 09:49:38;;;;;;;2.33;1.73;;;;;;;20.91;25.94;101914.53;4938752;29;20048;-67
2022/02/01 09:52:06;;;;;;;2.20;1.67;;;;;;;20.81;25.28;101924.09;4942764;29;20079;-70
2022/02/01 09:54:32;;;;;;;3.20;2.33;;;;;;;20.88;25.06;101963.44;4940771;29;20044;-68
2022/02/01 09:57:05;;;;;;;3.17;1.83;;;;;;;20.97;25.16;101939.66;4940832;29;20086;-66
2022/02/01 09:59:34;;;;;;;2.50;1.55;;;;;;;21.23;25.16;101953.28;4939219;29;20538;-67
2022/02/01 10:02:09;;;;;;;4.82;2.00;;;;;;;21.01;25.26;101957.75;4936790;29;20515;-68
2022/02/01 10:04:37;;;;;;;3.35;1.60;;;;;;;21.06;25.50;101957.66;4940409;29;20055;-68
2022/02/01 10:07:10;;;;;;;4.03;1.92;;;;;;;20.60;25.24;101923.69;4949826;29;20032;-68
2022/02/01 10:09:50;;;;;;;3.17;1.58;;;;;;;21.02;25.18;101924.50;4960646;29;20047;-67
2022/02/01 10:12:19;;;;;;;3.05;1.60;;;;;;;21.33;25.05;101936.00;4959027;29;20058;-66
2022/02/01 10:14:58;;;;;;;6.93;3.45;;;;;;;21.52;25.07;101938.72;4939974;29;20074;-65
2022/02/01 10:17:32;;;;;;;1.90;1.60;;;;;;;21.27;24.80;101928.78;4955788;29;20043;-68
2022/02/01 10:19:58;;;;;;;4.88;1.77;;;;;;;21.12;25.08;101944.16;4958528;29;20354;-67
2022/02/01 10:22:34;;;;;;;2.38;1.73;;;;;;;20.68;25.13;101924.94;4958738;29;20051;-68
2022/02/01 10:25:05;;;;;;;4.65;2.10;;;;;;;20.50;25.55;101919.06;4953184;29;20570;-67
2022/02/01 10:27:34;;;;;;;2.10;1.75;;;;;;;20.53;25.37;101958.19;4940904;29;20081;-67
2022/02/01 10:30:14;;;;;;;4.43;2.83;;;;;;;20.55;25.55;101940.84;4932850;29;20062;-70
2022/02/01 10:38:09;;;;;;;2.60;1.67;;;;;;;20.22;25.86;101937.19;4928667;29;20403;-68
2022/02/01 10:40:45;;;;;;;1.25;1.20;;;;;;;20.01;26.16;101948.06;4925949;29;20492;-68
2022/02/01 10:43:28;;;;;;;5.45;1.70;;;;;;;20.16;26.24;101941.28;4925658;29;20059;-68
2022/02/01 10:46:09;;;;;;;1.40;1.30;;;;;;;20.42;25.83;101942.47;4931889;29;20124;-67
2022/02/01 10:48:38;;;;;;;4.63;1.88;;;;;;;20.86;25.88;101949.56;4924538;29;20094;-67
2022/02/01 10:51:13;;;;;;;3.17;2.05;;;;;;;20.87;25.62;101930.53;4928787;29;20059;-67
2022/02/01 10:53:41;;;;;;;2.97;1.92;;;;;;;20.88;25.47;101921.69;4931632;29;20135;-67
2022/02/01 10:56:11;;;;;;;5.20;1.88;;;;;;;20.76;25.27;101916.56;4928379;29;20131;-68
2022/02/01 10:58:38;;;;;;;4.35;1.88;;;;;;;21.14;25.25;101924.81;4929730;29;20052;-69
2022/02/01 11:01:06;;;;;;;3.58;1.88;;;;;;;21.81;24.85;101940.28;4930171;29;20043;-68
2022/02/01 11:03:39;;;;;;;2.17;1.90;;;;;;;22.33;24.73;101935.78;4931948;29;20097;-70
2022/02/01 11:06:06;;;;;;;5.63;2.90;;;;;;;22.45;23.90;101955.94;4930611;29;20052;-70
2022/02/01 11:08:39;;;;;;;2.75;1.85;;;;;;;22.67;23.90;101940.81;4933342;29;20389;-74
2022/02/01 11:11:07;;;;;;;2.65;2.08;;;;;;;23.05;23.83;101943.13;4934131;29;20492;-67
2022/02/01 11:13:43;;;;;;;4.70;1.98;;;;;;;23.15;22.99;101933.44;4927223;29;20095;-66
2022/02/01 11:16:19;;;;;;;3.42;2.10;;;;;;;22.40;23.33;101935.31;4928021;29;20066;-67
2022/02/01 11:18:55;;;;;;;3.60;2.00;;;;;;;22.20;23.59;101913.97;4925426;29;20050;-67
2022/02/01 11:21:23;;;;;;;9.18;2.47;;;;;;;22.32;23.38;101913.34;4929474;29;20106;-67
2022/02/01 11:26:50;;;;;;;3.67;2.30;;;;;;;23.70;23.46;101927.09;4928502;29;20174;-68
2022/02/01 11:29:32;;;;;;;3.53;2.33;;;;;;;24.24;22.69;101933.22;4930339;29;20563;-70
2022/02/01 11:32:17;;;;;;;3.80;2.50;;;;;;;24.35;22.89;101928.81;4929985;29;20131;-70
2022/02/01 11:35:11;;;;;;;3.88;2.75;;;;;;;24.90;22.28;101931.94;4929701;29;20044;-70
2022/02/01 11:38:07;;;;;;;3.67;2.53;;;;;;;24.69;21.72;101921.31;4930285;29;20067;-71
2022/02/01 11:40:36;;;;;;;6.10;2.03;;;;;;;24.62;21.50;101929.56;4938686;28;20167;-68
2022/02/01 11:43:26;;;;;;;3.58;2.65;;;;;;;24.32;21.49;101909.50;4931523;29;20055;-68
2022/02/01 11:46:01;;;;;;;3.60;2.17;;;;;;;24.63;21.54;101885.53;4927816;29;20055;-66
2022/02/01 11:48:31;;;;;;;3.42;2.33;;;;;;;24.34;21.19;101917.69;4923577;29;20074;-68
2022/02/01 11:51:09;;;;;;;3.08;1.88;;;;;;;24.02;21.52;101899.19;4925152;29;20051;-67
2022/02/01 11:53:41;;;;;;;4.45;2.38;;;;;;;23.54;21.52;101912.47;4926236;29;20507;-68
2022/02/01 11:56:11;;;;;;;6.18;2.17;;;;;;;23.61;21.65;101897.72;4928752;29;20151;-68
2022/02/01 11:58:42;;;;;;;;;;;;;;;23.85;21.36;101886.63;4927065;29;20063;-68
2022/02/01 12:01:31;;;;;;;4.43;2.42;;;;;;;24.76;20.95;101890.16;4927995;29;19954;-72
2022/02/01 12:04:03;;;;;;;2.60;2.30;;;;;;;24.78;20.52;101870.66;4932816;29;20084;-68
2022/02/01 12:06:44;;;;;;;3.05;2.67;;;;;;;24.69;20.19;101871.91;4935848;29;20078;-72
2022/02/01 12:09:19;;;;;;;3.50;2.20;;;;;;;24.72;20.50;101854.91;4936305;29;20079;-68
2022/02/01 12:11:53;;;;;;;4.50;2.40;;;;;;;25.06;20.27;101850.97;4928652;29;20066;-68
2022/02/01 12:14:21;;;;;;;5.75;3.17;;;;;;;25.62;19.58;101859.25;4930299;29;20050;-67
2022/02/01 12:16:50;;;;;;;3.08;2.78;;;;;;;25.53;19.57;101845.03;4932685;29;20115;-68
2022/02/01 12:19:29;;;;;;;3.10;2.45;;;;;;;25.75;19.36;101851.56;4934102;29;20467;-68
2022/02/01 12:22:40;;;;;;;3.10;2.80;;;;;;;25.72;19.69;101837.94;4933476;29;20044;-68
2022/02/01 12:25:10;;;;;;;4.60;2.72;;;;;;;26.35;19.05;101834.84;4932351;29;20048;-68
2022/02/01 12:27:40;;;;;;;3.80;3.10;;;;;;;26.79;18.42;101843.69;4942758;28;20566;-68
2022/02/01 12:30:10;;;;;;;4.55;3.00;;;;;;;26.71;18.67;101842.66;4937332;29;20531;-68
2022/02/01 12:32:52;;;;;;;4.35;3.25;;;;;;;27.41;18.67;101840.31;4935556;29;20060;-68
2022/02/01 12:35:37;;;;;;;5.13;3.08;;;;;;;27.68;18.24;101857.06;4933538;29;20047;-68
2022/02/01 12:38:04;;;;;;;4.00;2.38;;;;;;;28.17;17.63;101839.56;4930980;29;20054;-68
2022/02/01 12:40:37;;;;;;;2.92;2.63;;;;;;;28.64;17.42;101830.94;4934406;29;20408;-67
2022/02/01 12:43:12;;;;;;;3.70;2.40;;;;;;;28.55;17.13;101821.72;4933995;29;20047;-68
2022/02/01 12:45:50;;;;;;;10.65;2.75;;;;;;;28.48;17.13;101798.53;4936006;29;20050;-68
2022/02/01 12:48:18;;;;;;;6.25;3.47;;;;;;;28.14;16.84;101823.94;4931080;29;20059;-67
2022/02/01 12:51:03;;;;;;;5.72;2.72;;;;;;;28.45;17.47;101793.56;4931985;29;20052;-67
2022/02/01 12:53:47;;;;;;;3.00;2.67;;;;;;;29.48;16.92;101801.63;4929453;29;20083;-71
2022/02/01 12:56:17;;;;;;;2.65;2.40;;;;;;;29.31;16.35;101792.63;4935745;29;20075;-68
2022/02/01 12:59:02;;;;;;;4.55;3.00;;;;;;;29.03;16.48;101770.69;4935737;29;20076;-68
2022/02/01 13:01:33;;;;;;;2.60;2.33;;;;;;;29.19;16.25;101799.34;4928325;29;20455;-68
2022/02/01 13:04:06;;;;;;;3.72;3.00;;;;;;;28.64;16.27;101789.88;4934220;29;20402;-68
2022/02/01 13:06:39;;;;;;;4.43;3.08;;;;;;;28.24;16.63;101776.56;4933924;29;20138;-68
2022/02/01 13:14:55;;;;;;;3.15;2.85;;;;;;;29.21;16.73;101750.91;4935795;29;20503;-68
2022/02/01 13:17:41;;;;;;;6.32;3.00;;;;;;;30.28;15.83;101752.91;4940700;28;20145;-69
2022/02/01 13:20:19;;;;;;;4.88;3.40;;;;;;;31.41;15.03;101751.22;4933589;29;20126;-68
2022/02/01 13:23:04;;;;;;;6.45;3.00;;;;;;;31.72;15.16;101730.50;4931229;29;20069;-67
2022/02/01 13:25:39;;;;;;;4.72;3.45;;;;;;;31.98;14.98;101738.19;4932238;29;20134;-68
2022/02/01 13:28:10;;;;;;;3.70;3.40;;;;;;;31.75;14.69;101726.00;4934110;29;20102;-67